PWSweather.com
Personal Weather Stations
Station Observations
IHESSENR7
ReinhardshagenDE

ReinhardshagenDE

Lat: 51.48, Lon: 9.62

Elevation: 120

Station Type: Davis VantagePro

http://www.rhgwetter.de/

Latest ConditionsUpdated 1:00:06 PM GMT+01:01 Friday, Jun 23, 2017
Currently Today's Max Today's Min Today's Average
Temperature 75.0°F23.9°C 75.0°F23.9°C 63.6°F17.6°C 67.3°F19.6°C
Dew Point 61.0°F16.1°C 63.2°F17.3°C 59.5°F15.3°C 60.7°F15.9°C
Winds 8.0 mph NNW12.9 kmh NNW 11.0 mph NW17.7 kmh NW - 3.0 mph 4.8 kmh
Wind Gusts 12.0 mph19.3 kmh 17.0 mph27.4 kmh - -
Humidity 62% 92% 62% 80%
Pressure 29.95 in1014.2 mb 29.96 in1014.6 mb 29.84 in1010.5 mb -
Hour Temp Dew Point Humidity Winds Wind Gusts Pressure Precip Precip Rate Daily Precip Total
01:00 PM 75.0°F23.9°C 61.0°F16.1°C 62% 8.0 mph NNW12.9 kmh NNW 12.0 mph19.3 kmh 29.95 in1014.2 mb 0.00 in0.0 mm 0.00 in0.0 mm 0.00 in0.0 mm
12:30 PM 73.5°F23.1°C 60.1°F15.6°C 63% 5.0 mph NW8.0 kmh NW 12.0 mph19.3 kmh 29.95 in1014.2 mb 0.00 in0.0 mm 0.00 in0.0 mm 0.00 in0.0 mm
12:00 PM 72.6°F22.6°C 61.8°F16.6°C 69% Calm Calm 9.0 mph14.5 kmh 29.96 in1014.6 mb 0.00 in0.0 mm 0.00 in0.0 mm 0.00 in0.0 mm
11:30 AM 71.6°F22.0°C 60.4°F15.8°C 68% 6.0 mph WNW9.7 kmh WNW 13.0 mph20.9 kmh 29.96 in1014.6 mb 0.00 in0.0 mm 0.00 in0.0 mm 0.00 in0.0 mm
11:01 AM 70.6°F21.4°C 60.3°F15.7°C 70% Calm Calm 11.0 mph17.7 kmh 29.95 in1014.2 mb 0.00 in0.0 mm 0.00 in0.0 mm 0.00 in0.0 mm
10:30 AM 70.2°F21.2°C 59.9°F15.5°C 70% 4.0 mph N6.4 kmh N 10.0 mph16.1 kmh 29.96 in1014.6 mb 0.00 in0.0 mm 0.00 in0.0 mm 0.00 in0.0 mm
10:00 AM 69.7°F20.9°C 59.8°F15.4°C 71% Calm Calm 12.0 mph19.3 kmh 29.95 in1014.2 mb 0.00 in0.0 mm 0.00 in0.0 mm 0.00 in0.0 mm
09:30 AM 69.1°F20.6°C 59.6°F15.3°C 72% Calm Calm 10.0 mph16.1 kmh 29.95 in1014.2 mb 0.00 in0.0 mm 0.00 in0.0 mm 0.00 in0.0 mm
09:00 AM 68.6°F20.3°C 59.5°F15.3°C 73% Calm Calm 17.0 mph27.4 kmh 29.94 in1013.9 mb 0.00 in0.0 mm 0.00 in0.0 mm 0.00 in0.0 mm
08:30 AM 67.5°F19.7°C 60.0°F15.6°C 77% 3.0 mph NW4.8 kmh NW 14.0 mph22.5 kmh 29.93 in1013.5 mb 0.00 in0.0 mm 0.00 in0.0 mm 0.00 in0.0 mm
08:00 AM 67.0°F19.4°C 60.6°F15.9°C 80% 7.0 mph NW11.3 kmh NW 12.0 mph19.3 kmh 29.92 in1013.2 mb 0.00 in0.0 mm 0.00 in0.0 mm 0.00 in0.0 mm
07:30 AM 66.2°F19.0°C 60.5°F15.8°C 82% 2.0 mph WSW3.2 kmh WSW 13.0 mph20.9 kmh 29.91 in1012.9 mb 0.00 in0.0 mm 0.00 in0.0 mm 0.00 in0.0 mm
07:00 AM 65.9°F18.8°C 60.9°F16.1°C 84% 5.0 mph NW8.0 kmh NW 12.0 mph19.3 kmh 29.90 in1012.5 mb 0.00 in0.0 mm 0.00 in0.0 mm 0.00 in0.0 mm
06:30 AM 65.6°F18.7°C 60.6°F15.9°C 84% 5.0 mph WNW8.0 kmh WNW 9.0 mph14.5 kmh 29.89 in1012.2 mb 0.00 in0.0 mm 0.00 in0.0 mm 0.00 in0.0 mm
06:00 AM 65.3°F18.5°C 60.6°F15.9°C 85% Calm Calm -- 29.88 in1011.9 mb 0.00 in0.0 mm 0.00 in0.0 mm 0.00 in0.0 mm
05:30 AM 65.0°F18.3°C 60.3°F15.7°C 85% Calm Calm -- 29.88 in1011.9 mb 0.00 in0.0 mm 0.00 in0.0 mm 0.00 in0.0 mm
05:00 AM 64.9°F18.3°C 60.2°F15.7°C 85% Calm Calm -- 29.88 in1011.9 mb 0.00 in0.0 mm 0.00 in0.0 mm 0.00 in0.0 mm
04:30 AM 65.0°F18.3°C 60.3°F15.7°C 85% Calm Calm 7.0 mph11.3 kmh 29.88 in1011.9 mb 0.00 in0.0 mm 0.00 in0.0 mm 0.00 in0.0 mm
04:00 AM 64.4°F18.0°C 60.4°F15.8°C 87% 5.0 mph WSW8.0 kmh WSW 11.0 mph17.7 kmh 29.86 in1011.2 mb 0.00 in0.0 mm 0.00 in0.0 mm 0.00 in0.0 mm
03:30 AM 63.6°F17.6°C 60.9°F16.1°C 91% Calm Calm -- 29.86 in1011.2 mb 0.00 in0.0 mm 0.00 in0.0 mm 0.00 in0.0 mm
03:00 AM 64.3°F17.9°C 60.6°F15.9°C 88% Calm Calm 7.0 mph11.3 kmh 29.85 in1010.8 mb 0.00 in0.0 mm 0.00 in0.0 mm 0.00 in0.0 mm
02:30 AM 65.7°F18.7°C 60.7°F15.9°C 84% 5.0 mph W8.0 kmh W 11.0 mph17.7 kmh 29.84 in1010.5 mb 0.00 in0.0 mm 0.00 in0.0 mm 0.00 in0.0 mm
02:00 AM 65.4°F18.6°C 61.4°F16.3°C 87% 8.0 mph WNW12.9 kmh WNW 15.0 mph24.1 kmh 29.85 in1010.8 mb 0.00 in0.0 mm 0.00 in0.0 mm 0.00 in0.0 mm
01:30 AM 64.0°F17.8°C 61.6°F16.4°C 92% 4.0 mph W6.4 kmh W 6.0 mph9.7 kmh 29.85 in1010.8 mb 0.00 in0.0 mm 0.00 in0.0 mm 0.00 in0.0 mm
01:00 AM 64.5°F18.1°C 61.8°F16.6°C 91% Calm Calm 8.0 mph12.9 kmh 29.85 in1010.8 mb 0.00 in0.0 mm 0.00 in0.0 mm 0.00 in0.0 mm
12:30 AM 65.4°F18.6°C 62.0°F16.7°C 89% 2.0 mph NW3.2 kmh NW 12.0 mph19.3 kmh 29.84 in1010.5 mb 0.00 in0.0 mm 0.00 in0.0 mm 0.00 in0.0 mm
12:00 AM 66.0°F18.9°C 63.2°F17.3°C 91% 11.0 mph NW17.7 kmh NW 13.0 mph20.9 kmh 29.84 in1010.5 mb 0.00 in0.0 mm 0.00 in0.0 mm 0.00 in0.0 mm